sensor_id;sensor_type;location;lat;lon;timestamp;P1;durP1;ratioP1;P2;durP2;ratioP2
35444;SDS011;21562;49.476;6.086;2023-09-08T00:00:04;13.10;;;7.50;;
35444;SDS011;21562;49.476;6.086;2023-09-08T00:02:31;9.45;;;7.20;;
35444;SDS011;21562;49.476;6.086;2023-09-08T00:04:56;11.32;;;6.53;;
35444;SDS011;21562;49.476;6.086;2023-09-08T00:07:22;15.63;;;6.78;;
35444;SDS011;21562;49.476;6.086;2023-09-08T00:09:47;14.27;;;6.22;;
35444;SDS011;21562;49.476;6.086;2023-09-08T00:12:13;11.80;;;6.20;;
35444;SDS011;21562;49.476;6.086;2023-09-08T00:14:39;9.68;;;6.40;;
35444;SDS011;21562;49.476;6.086;2023-09-08T00:17:05;13.07;;;6.70;;
35444;SDS011;21562;49.476;6.086;2023-09-08T00:19:30;11.60;;;6.97;;
35444;SDS011;21562;49.476;6.086;2023-09-08T00:21:56;9.32;;;6.68;;
35444;SDS011;21562;49.476;6.086;2023-09-08T00:24:22;8.93;;;6.75;;
35444;SDS011;21562;49.476;6.086;2023-09-08T00:26:47;10.95;;;7.05;;
35444;SDS011;21562;49.476;6.086;2023-09-08T00:29:13;11.88;;;6.88;;
35444;SDS011;21562;49.476;6.086;2023-09-08T00:31:39;14.20;;;6.53;;
35444;SDS011;21562;49.476;6.086;2023-09-08T00:34:05;11.88;;;7.38;;
35444;SDS011;21562;49.476;6.086;2023-09-08T00:36:31;9.25;;;6.70;;
35444;SDS011;21562;49.476;6.086;2023-09-08T00:38:57;11.13;;;6.97;;
35444;SDS011;21562;49.476;6.086;2023-09-08T00:41:23;7.80;;;6.45;;
35444;SDS011;21562;49.476;6.086;2023-09-08T00:43:49;14.00;;;7.72;;
35444;SDS011;21562;49.476;6.086;2023-09-08T00:46:15;9.05;;;6.38;;
35444;SDS011;21562;49.476;6.086;2023-09-08T00:48:41;11.98;;;6.45;;
35444;SDS011;21562;49.476;6.086;2023-09-08T00:51:07;10.10;;;6.80;;
35444;SDS011;21562;49.476;6.086;2023-09-08T00:53:35;11.38;;;7.03;;
35444;SDS011;21562;49.476;6.086;2023-09-08T00:56:01;10.25;;;6.85;;
35444;SDS011;21562;49.476;6.086;2023-09-08T00:58:28;11.82;;;6.78;;
35444;SDS011;21562;49.476;6.086;2023-09-08T01:00:54;14.18;;;7.05;;
35444;SDS011;21562;49.476;6.086;2023-09-08T01:03:22;12.27;;;6.60;;
35444;SDS011;21562;49.476;6.086;2023-09-08T01:05:48;9.40;;;6.50;;
35444;SDS011;21562;49.476;6.086;2023-09-08T01:08:15;12.48;;;6.95;;
35444;SDS011;21562;49.476;6.086;2023-09-08T01:10:41;11.70;;;6.60;;
35444;SDS011;21562;49.476;6.086;2023-09-08T01:13:07;9.48;;;7.25;;
35444;SDS011;21562;49.476;6.086;2023-09-08T01:15:34;9.30;;;6.95;;
35444;SDS011;21562;49.476;6.086;2023-09-08T01:17:59;12.70;;;7.05;;
35444;SDS011;21562;49.476;6.086;2023-09-08T01:26:21;11.33;;;6.10;;
35444;SDS011;21562;49.476;6.086;2023-09-08T01:31:22;10.52;;;6.97;;
35444;SDS011;21562;49.476;6.086;2023-09-08T01:33:47;14.07;;;7.13;;
35444;SDS011;21562;49.476;6.086;2023-09-08T01:36:13;12.23;;;6.60;;
35444;SDS011;21562;49.476;6.086;2023-09-08T01:38:39;12.20;;;7.05;;
35444;SDS011;21562;49.476;6.086;2023-09-08T01:41:05;11.90;;;6.45;;
35444;SDS011;21562;49.476;6.086;2023-09-08T01:43:30;9.75;;;6.50;;
35444;SDS011;21562;49.476;6.086;2023-09-08T01:45:56;12.13;;;7.20;;
35444;SDS011;21562;49.476;6.086;2023-09-08T01:48:22;12.07;;;6.20;;
35444;SDS011;21562;49.476;6.086;2023-09-08T01:50:47;9.45;;;6.32;;
35444;SDS011;21562;49.476;6.086;2023-09-08T01:53:13;11.60;;;6.72;;
35444;SDS011;21562;49.476;6.086;2023-09-08T01:55:38;9.80;;;6.38;;
35444;SDS011;21562;49.476;6.086;2023-09-08T01:58:04;8.85;;;6.53;;
35444;SDS011;21562;49.476;6.086;2023-09-08T02:00:29;12.93;;;6.53;;
35444;SDS011;21562;49.476;6.086;2023-09-08T02:02:55;11.85;;;6.55;;
35444;SDS011;21562;49.476;6.086;2023-09-08T02:05:21;13.07;;;7.10;;
35444;SDS011;21562;49.476;6.086;2023-09-08T02:07:47;12.00;;;6.55;;
35444;SDS011;21562;49.476;6.086;2023-09-08T02:10:12;8.85;;;6.28;;
35444;SDS011;21562;49.476;6.086;2023-09-08T02:12:38;7.63;;;6.07;;
35444;SDS011;21562;49.476;6.086;2023-09-08T02:15:04;10.77;;;6.82;;
35444;SDS011;21562;49.476;6.086;2023-09-08T02:17:30;10.80;;;6.03;;
35444;SDS011;21562;49.476;6.086;2023-09-08T02:19:55;8.30;;;6.20;;
35444;SDS011;21562;49.476;6.086;2023-09-08T02:22:21;9.77;;;5.88;;
35444;SDS011;21562;49.476;6.086;2023-09-08T02:24:47;9.85;;;7.28;;
35444;SDS011;21562;49.476;6.086;2023-09-08T02:27:12;9.98;;;6.35;;
35444;SDS011;21562;49.476;6.086;2023-09-08T02:29:38;8.20;;;6.13;;
35444;SDS011;21562;49.476;6.086;2023-09-08T02:32:04;10.90;;;6.60;;
35444;SDS011;21562;49.476;6.086;2023-09-08T02:34:29;12.80;;;5.95;;
35444;SDS011;21562;49.476;6.086;2023-09-08T02:36:55;9.95;;;6.45;;
35444;SDS011;21562;49.476;6.086;2023-09-08T02:39:21;7.45;;;6.25;;
35444;SDS011;21562;49.476;6.086;2023-09-08T02:41:48;12.07;;;6.28;;
35444;SDS011;21562;49.476;6.086;2023-09-08T02:44:13;15.57;;;6.60;;
35444;SDS011;21562;49.476;6.086;2023-09-08T02:46:39;9.45;;;6.25;;
35444;SDS011;21562;49.476;6.086;2023-09-08T02:49:05;10.75;;;6.45;;
35444;SDS011;21562;49.476;6.086;2023-09-08T02:51:31;12.73;;;6.75;;
35444;SDS011;21562;49.476;6.086;2023-09-08T02:53:56;10.75;;;6.50;;
35444;SDS011;21562;49.476;6.086;2023-09-08T02:56:22;12.18;;;6.50;;
35444;SDS011;21562;49.476;6.086;2023-09-08T02:58:48;13.07;;;6.55;;
35444;SDS011;21562;49.476;6.086;2023-09-08T03:01:14;9.38;;;6.28;;
35444;SDS011;21562;49.476;6.086;2023-09-08T03:03:43;10.23;;;7.07;;
35444;SDS011;21562;49.476;6.086;2023-09-08T03:06:09;10.43;;;6.15;;
35444;SDS011;21562;49.476;6.086;2023-09-08T03:08:36;9.38;;;6.20;;
35444;SDS011;21562;49.476;6.086;2023-09-08T03:11:02;9.15;;;6.38;;
35444;SDS011;21562;49.476;6.086;2023-09-08T03:13:29;9.57;;;5.95;;
35444;SDS011;21562;49.476;6.086;2023-09-08T03:15:55;13.77;;;6.70;;
35444;SDS011;21562;49.476;6.086;2023-09-08T03:18:21;10.57;;;6.78;;
35444;SDS011;21562;49.476;6.086;2023-09-08T03:20:48;9.18;;;5.60;;
35444;SDS011;21562;49.476;6.086;2023-09-08T03:23:15;10.85;;;6.22;;
35444;SDS011;21562;49.476;6.086;2023-09-08T03:25:41;11.07;;;6.75;;
35444;SDS011;21562;49.476;6.086;2023-09-08T03:28:07;11.68;;;7.03;;
35444;SDS011;21562;49.476;6.086;2023-09-08T03:30:32;12.35;;;6.47;;
35444;SDS011;21562;49.476;6.086;2023-09-08T03:32:58;9.85;;;6.95;;
35444;SDS011;21562;49.476;6.086;2023-09-08T03:35:23;8.73;;;6.70;;
35444;SDS011;21562;49.476;6.086;2023-09-08T03:37:49;8.82;;;6.10;;
35444;SDS011;21562;49.476;6.086;2023-09-08T03:40:15;9.27;;;6.63;;
35444;SDS011;21562;49.476;6.086;2023-09-08T03:42:40;10.45;;;6.30;;
35444;SDS011;21562;49.476;6.086;2023-09-08T03:45:07;11.27;;;6.43;;
35444;SDS011;21562;49.476;6.086;2023-09-08T03:47:33;11.80;;;6.55;;
35444;SDS011;21562;49.476;6.086;2023-09-08T03:49:59;12.07;;;7.05;;
35444;SDS011;21562;49.476;6.086;2023-09-08T03:52:24;9.70;;;6.20;;
35444;SDS011;21562;49.476;6.086;2023-09-08T03:54:50;8.60;;;6.82;;
35444;SDS011;21562;49.476;6.086;2023-09-08T03:57:15;10.98;;;5.88;;
35444;SDS011;21562;49.476;6.086;2023-09-08T03:59:41;11.55;;;6.43;;
35444;SDS011;21562;49.476;6.086;2023-09-08T04:02:07;10.95;;;6.45;;
35444;SDS011;21562;49.476;6.086;2023-09-08T04:04:32;10.07;;;6.18;;
35444;SDS011;21562;49.476;6.086;2023-09-08T04:06:58;25.17;;;7.55;;
35444;SDS011;21562;49.476;6.086;2023-09-08T04:09:24;12.85;;;6.50;;
35444;SDS011;21562;49.476;6.086;2023-09-08T04:11:49;12.80;;;6.95;;
35444;SDS011;21562;49.476;6.086;2023-09-08T04:14:16;13.63;;;6.88;;
35444;SDS011;21562;49.476;6.086;2023-09-08T04:16:41;10.57;;;6.82;;
35444;SDS011;21562;49.476;6.086;2023-09-08T04:19:07;11.90;;;6.45;;
35444;SDS011;21562;49.476;6.086;2023-09-08T04:21:33;8.73;;;6.15;;
35444;SDS011;21562;49.476;6.086;2023-09-08T04:23:59;11.07;;;7.30;;
35444;SDS011;21562;49.476;6.086;2023-09-08T04:26:24;10.25;;;6.82;;
35444;SDS011;21562;49.476;6.086;2023-09-08T04:28:50;10.38;;;6.70;;
35444;SDS011;21562;49.476;6.086;2023-09-08T04:31:15;11.25;;;7.90;;
35444;SDS011;21562;49.476;6.086;2023-09-08T04:33:43;11.50;;;7.30;;
35444;SDS011;21562;49.476;6.086;2023-09-08T04:36:08;14.65;;;7.60;;
35444;SDS011;21562;49.476;6.086;2023-09-08T04:38:36;9.77;;;6.40;;
35444;SDS011;21562;49.476;6.086;2023-09-08T04:41:01;13.00;;;6.88;;
35444;SDS011;21562;49.476;6.086;2023-09-08T04:43:27;7.78;;;6.45;;
35444;SDS011;21562;49.476;6.086;2023-09-08T04:45:52;13.43;;;6.68;;
35444;SDS011;21562;49.476;6.086;2023-09-08T04:48:18;13.10;;;7.38;;
35444;SDS011;21562;49.476;6.086;2023-09-08T04:50:44;9.68;;;6.82;;
35444;SDS011;21562;49.476;6.086;2023-09-08T04:53:09;9.60;;;6.13;;
35444;SDS011;21562;49.476;6.086;2023-09-08T04:55:35;11.63;;;6.95;;
35444;SDS011;21562;49.476;6.086;2023-09-08T04:58:01;10.32;;;6.72;;
35444;SDS011;21562;49.476;6.086;2023-09-08T05:00:26;10.00;;;7.03;;
35444;SDS011;21562;49.476;6.086;2023-09-08T05:02:52;9.40;;;6.22;;
35444;SDS011;21562;49.476;6.086;2023-09-08T05:05:17;14.65;;;6.82;;
35444;SDS011;21562;49.476;6.086;2023-09-08T05:07:43;9.27;;;6.80;;
35444;SDS011;21562;49.476;6.086;2023-09-08T05:10:10;10.32;;;7.13;;
35444;SDS011;21562;49.476;6.086;2023-09-08T05:12:36;7.47;;;6.10;;
35444;SDS011;21562;49.476;6.086;2023-09-08T05:15:01;13.52;;;6.80;;
35444;SDS011;21562;49.476;6.086;2023-09-08T05:17:31;15.02;;;5.63;;
35444;SDS011;21562;49.476;6.086;2023-09-08T05:19:57;9.05;;;6.55;;
35444;SDS011;21562;49.476;6.086;2023-09-08T05:22:23;11.43;;;7.30;;
35444;SDS011;21562;49.476;6.086;2023-09-08T05:24:48;14.60;;;7.10;;
35444;SDS011;21562;49.476;6.086;2023-09-08T05:27:14;8.43;;;6.30;;
35444;SDS011;21562;49.476;6.086;2023-09-08T05:29:40;9.30;;;6.70;;
35444;SDS011;21562;49.476;6.086;2023-09-08T05:32:05;10.90;;;6.35;;
35444;SDS011;21562;49.476;6.086;2023-09-08T05:34:31;9.63;;;6.35;;
35444;SDS011;21562;49.476;6.086;2023-09-08T05:36:57;11.95;;;6.85;;
35444;SDS011;21562;49.476;6.086;2023-09-08T05:39:22;13.80;;;6.57;;
35444;SDS011;21562;49.476;6.086;2023-09-08T05:41:48;11.45;;;6.63;;
35444;SDS011;21562;49.476;6.086;2023-09-08T05:44:13;8.32;;;6.18;;
35444;SDS011;21562;49.476;6.086;2023-09-08T05:46:39;10.45;;;6.35;;
35444;SDS011;21562;49.476;6.086;2023-09-08T05:49:04;10.60;;;6.22;;
35444;SDS011;21562;49.476;6.086;2023-09-08T05:51:31;9.98;;;5.82;;
35444;SDS011;21562;49.476;6.086;2023-09-08T05:53:57;7.88;;;6.20;;
35444;SDS011;21562;49.476;6.086;2023-09-08T05:56:24;15.95;;;5.72;;
35444;SDS011;21562;49.476;6.086;2023-09-08T05:58:54;9.13;;;6.63;;
35444;SDS011;21562;49.476;6.086;2023-09-08T06:01:20;12.63;;;6.35;;
35444;SDS011;21562;49.476;6.086;2023-09-08T06:03:45;13.93;;;7.28;;
35444;SDS011;21562;49.476;6.086;2023-09-08T06:06:11;8.95;;;6.45;;
35444;SDS011;21562;49.476;6.086;2023-09-08T06:08:38;11.98;;;7.00;;
35444;SDS011;21562;49.476;6.086;2023-09-08T06:11:03;10.90;;;6.88;;
35444;SDS011;21562;49.476;6.086;2023-09-08T06:13:29;10.90;;;6.82;;
35444;SDS011;21562;49.476;6.086;2023-09-08T06:15:55;14.85;;;7.25;;
35444;SDS011;21562;49.476;6.086;2023-09-08T06:18:20;12.13;;;5.93;;
35444;SDS011;21562;49.476;6.086;2023-09-08T06:20:46;11.38;;;6.57;;
35444;SDS011;21562;49.476;6.086;2023-09-08T06:23:12;11.93;;;7.00;;
35444;SDS011;21562;49.476;6.086;2023-09-08T06:25:38;12.85;;;7.15;;
35444;SDS011;21562;49.476;6.086;2023-09-08T06:28:05;16.35;;;6.57;;
35444;SDS011;21562;49.476;6.086;2023-09-08T06:30:30;8.55;;;6.28;;
35444;SDS011;21562;49.476;6.086;2023-09-08T06:32:56;9.60;;;6.80;;
35444;SDS011;21562;49.476;6.086;2023-09-08T06:35:22;8.82;;;6.40;;
35444;SDS011;21562;49.476;6.086;2023-09-08T06:37:47;10.98;;;6.90;;
35444;SDS011;21562;49.476;6.086;2023-09-08T06:40:13;14.30;;;6.72;;
35444;SDS011;21562;49.476;6.086;2023-09-08T06:42:38;7.75;;;6.38;;
35444;SDS011;21562;49.476;6.086;2023-09-08T06:45:04;10.30;;;6.70;;
35444;SDS011;21562;49.476;6.086;2023-09-08T06:47:30;10.32;;;6.53;;
35444;SDS011;21562;49.476;6.086;2023-09-08T06:49:56;10.75;;;6.75;;
35444;SDS011;21562;49.476;6.086;2023-09-08T06:52:21;9.40;;;6.70;;
35444;SDS011;21562;49.476;6.086;2023-09-08T06:54:47;10.77;;;6.85;;
35444;SDS011;21562;49.476;6.086;2023-09-08T06:57:13;12.85;;;6.47;;
35444;SDS011;21562;49.476;6.086;2023-09-08T06:59:39;10.75;;;6.25;;
35444;SDS011;21562;49.476;6.086;2023-09-08T07:02:05;8.32;;;6.10;;
35444;SDS011;21562;49.476;6.086;2023-09-08T07:04:32;13.27;;;6.65;;
35444;SDS011;21562;49.476;6.086;2023-09-08T07:06:57;11.40;;;6.70;;
35444;SDS011;21562;49.476;6.086;2023-09-08T07:09:25;8.20;;;6.32;;
35444;SDS011;21562;49.476;6.086;2023-09-08T07:11:50;10.63;;;6.97;;
35444;SDS011;21562;49.476;6.086;2023-09-08T07:14:16;10.30;;;6.50;;
35444;SDS011;21562;49.476;6.086;2023-09-08T07:16:41;9.75;;;7.05;;
35444;SDS011;21562;49.476;6.086;2023-09-08T07:19:07;13.07;;;6.85;;
35444;SDS011;21562;49.476;6.086;2023-09-08T07:21:33;15.40;;;8.23;;
35444;SDS011;21562;49.476;6.086;2023-09-08T07:23:58;13.63;;;7.38;;
35444;SDS011;21562;49.476;6.086;2023-09-08T07:26:25;14.50;;;8.00;;
35444;SDS011;21562;49.476;6.086;2023-09-08T07:28:51;17.75;;;8.20;;
35444;SDS011;21562;49.476;6.086;2023-09-08T07:31:16;18.90;;;7.18;;
35444;SDS011;21562;49.476;6.086;2023-09-08T07:33:42;13.32;;;6.95;;
35444;SDS011;21562;49.476;6.086;2023-09-08T07:36:08;14.80;;;7.18;;
35444;SDS011;21562;49.476;6.086;2023-09-08T07:38:34;11.85;;;6.15;;
35444;SDS011;21562;49.476;6.086;2023-09-08T07:41:03;8.48;;;5.90;;
35444;SDS011;21562;49.476;6.086;2023-09-08T07:43:28;11.02;;;5.95;;
35444;SDS011;21562;49.476;6.086;2023-09-08T07:45:54;7.72;;;5.60;;
35444;SDS011;21562;49.476;6.086;2023-09-08T07:48:19;12.75;;;5.68;;
35444;SDS011;21562;49.476;6.086;2023-09-08T07:50:45;8.30;;;5.47;;
35444;SDS011;21562;49.476;6.086;2023-09-08T07:53:11;8.77;;;5.22;;
35444;SDS011;21562;49.476;6.086;2023-09-08T07:55:37;11.23;;;6.38;;
35444;SDS011;21562;49.476;6.086;2023-09-08T07:58:02;15.93;;;5.68;;
35444;SDS011;21562;49.476;6.086;2023-09-08T08:00:31;9.60;;;6.35;;
35444;SDS011;21562;49.476;6.086;2023-09-08T08:02:57;8.27;;;6.03;;
35444;SDS011;21562;49.476;6.086;2023-09-08T08:05:23;12.23;;;6.00;;
35444;SDS011;21562;49.476;6.086;2023-09-08T08:07:50;10.93;;;5.90;;
35444;SDS011;21562;49.476;6.086;2023-09-08T08:10:16;9.98;;;5.80;;
35444;SDS011;21562;49.476;6.086;2023-09-08T08:12:42;12.20;;;5.68;;
35444;SDS011;21562;49.476;6.086;2023-09-08T08:15:08;10.50;;;5.70;;
35444;SDS011;21562;49.476;6.086;2023-09-08T08:17:35;7.15;;;5.68;;
35444;SDS011;21562;49.476;6.086;2023-09-08T08:20:02;8.80;;;5.95;;
35444;SDS011;21562;49.476;6.086;2023-09-08T08:22:34;12.38;;;6.03;;
35444;SDS011;21562;49.476;6.086;2023-09-08T08:25:00;9.02;;;5.55;;
35444;SDS011;21562;49.476;6.086;2023-09-08T08:27:26;12.40;;;5.78;;
35444;SDS011;21562;49.476;6.086;2023-09-08T08:29:52;9.82;;;5.38;;
35444;SDS011;21562;49.476;6.086;2023-09-08T08:32:17;8.13;;;5.22;;
35444;SDS011;21562;49.476;6.086;2023-09-08T08:34:43;8.70;;;5.18;;
35444;SDS011;21562;49.476;6.086;2023-09-08T08:37:10;13.63;;;5.57;;
35444;SDS011;21562;49.476;6.086;2023-09-08T08:39:35;10.60;;;5.43;;
35444;SDS011;21562;49.476;6.086;2023-09-08T08:42:07;12.13;;;5.75;;
35444;SDS011;21562;49.476;6.086;2023-09-08T08:44:39;7.47;;;4.72;;
35444;SDS011;21562;49.476;6.086;2023-09-08T08:47:08;9.30;;;5.70;;
35444;SDS011;21562;49.476;6.086;2023-09-08T08:49:35;8.25;;;4.90;;
35444;SDS011;21562;49.476;6.086;2023-09-08T08:52:02;7.95;;;5.05;;
35444;SDS011;21562;49.476;6.086;2023-09-08T08:54:35;8.77;;;5.72;;
35444;SDS011;21562;49.476;6.086;2023-09-08T08:57:04;13.82;;;6.05;;
35444;SDS011;21562;49.476;6.086;2023-09-08T08:59:30;7.13;;;5.20;;
35444;SDS011;21562;49.476;6.086;2023-09-08T09:01:57;10.30;;;5.70;;
35444;SDS011;21562;49.476;6.086;2023-09-08T09:04:24;8.23;;;5.00;;
35444;SDS011;21562;49.476;6.086;2023-09-08T09:06:52;10.35;;;5.30;;
35444;SDS011;21562;49.476;6.086;2023-09-08T09:09:18;7.65;;;4.63;;
35444;SDS011;21562;49.476;6.086;2023-09-08T09:11:44;9.23;;;5.07;;
35444;SDS011;21562;49.476;6.086;2023-09-08T09:14:10;8.55;;;5.45;;
35444;SDS011;21562;49.476;6.086;2023-09-08T09:16:39;5.43;;;4.57;;
35444;SDS011;21562;49.476;6.086;2023-09-08T09:19:09;7.25;;;5.55;;
35444;SDS011;21562;49.476;6.086;2023-09-08T09:24:15;9.50;;;5.47;;
35444;SDS011;21562;49.476;6.086;2023-09-08T09:26:41;8.73;;;5.72;;
35444;SDS011;21562;49.476;6.086;2023-09-08T09:29:13;10.65;;;5.65;;
35444;SDS011;21562;49.476;6.086;2023-09-08T09:31:52;10.55;;;6.28;;
35444;SDS011;21562;49.476;6.086;2023-09-08T09:34:18;8.10;;;5.78;;
35444;SDS011;21562;49.476;6.086;2023-09-08T09:36:46;10.90;;;5.80;;
35444;SDS011;21562;49.476;6.086;2023-09-08T09:39:16;8.90;;;5.68;;
35444;SDS011;21562;49.476;6.086;2023-09-08T09:41:43;9.85;;;5.60;;
35444;SDS011;21562;49.476;6.086;2023-09-08T09:44:13;8.77;;;5.75;;
35444;SDS011;21562;49.476;6.086;2023-09-08T09:46:42;7.57;;;5.40;;
35444;SDS011;21562;49.476;6.086;2023-09-08T09:49:12;9.38;;;6.05;;
35444;SDS011;21562;49.476;6.086;2023-09-08T09:51:48;11.85;;;5.40;;
35444;SDS011;21562;49.476;6.086;2023-09-08T09:54:17;8.25;;;5.53;;
35444;SDS011;21562;49.476;6.086;2023-09-08T09:56:43;17.88;;;5.50;;
35444;SDS011;21562;49.476;6.086;2023-09-08T09:59:11;6.50;;;5.43;;
35444;SDS011;21562;49.476;6.086;2023-09-08T10:01:37;10.90;;;5.88;;
35444;SDS011;21562;49.476;6.086;2023-09-08T10:04:07;9.70;;;5.93;;
35444;SDS011;21562;49.476;6.086;2023-09-08T10:06:34;7.57;;;5.72;;
35444;SDS011;21562;49.476;6.086;2023-09-08T10:09:01;6.10;;;5.03;;
35444;SDS011;21562;49.476;6.086;2023-09-08T10:11:34;10.70;;;5.43;;
35444;SDS011;21562;49.476;6.086;2023-09-08T10:14:06;6.40;;;4.78;;
35444;SDS011;21562;49.476;6.086;2023-09-08T10:16:36;6.20;;;5.30;;
35444;SDS011;21562;49.476;6.086;2023-09-08T10:19:09;8.73;;;5.10;;
35444;SDS011;21562;49.476;6.086;2023-09-08T10:21:42;11.05;;;5.90;;
35444;SDS011;21562;49.476;6.086;2023-09-08T10:24:23;10.30;;;5.15;;
35444;SDS011;21562;49.476;6.086;2023-09-08T10:26:51;9.30;;;6.80;;
35444;SDS011;21562;49.476;6.086;2023-09-08T10:29:28;12.25;;;6.15;;
35444;SDS011;21562;49.476;6.086;2023-09-08T10:31:56;10.63;;;5.57;;
35444;SDS011;21562;49.476;6.086;2023-09-08T10:34:23;11.13;;;5.65;;
35444;SDS011;21562;49.476;6.086;2023-09-08T10:36:50;9.52;;;5.43;;
35444;SDS011;21562;49.476;6.086;2023-09-08T10:39:30;8.20;;;5.18;;
35444;SDS011;21562;49.476;6.086;2023-09-08T10:44:41;9.57;;;4.97;;
35444;SDS011;21562;49.476;6.086;2023-09-08T10:47:07;7.55;;;5.85;;
35444;SDS011;21562;49.476;6.086;2023-09-08T10:49:36;9.00;;;5.22;;
35444;SDS011;21562;49.476;6.086;2023-09-08T10:52:10;8.45;;;5.18;;
35444;SDS011;21562;49.476;6.086;2023-09-08T10:54:40;12.65;;;5.55;;
35444;SDS011;21562;49.476;6.086;2023-09-08T10:57:08;9.65;;;5.20;;
35444;SDS011;21562;49.476;6.086;2023-09-08T10:59:38;7.65;;;4.85;;
35444;SDS011;21562;49.476;6.086;2023-09-08T11:02:05;9.82;;;4.80;;
35444;SDS011;21562;49.476;6.086;2023-09-08T11:04:30;7.38;;;4.97;;
35444;SDS011;21562;49.476;6.086;2023-09-08T11:06:58;9.43;;;5.40;;
35444;SDS011;21562;49.476;6.086;2023-09-08T11:09:24;12.45;;;5.07;;
35444;SDS011;21562;49.476;6.086;2023-09-08T11:11:50;8.98;;;5.35;;
35444;SDS011;21562;49.476;6.086;2023-09-08T11:14:15;9.80;;;4.63;;
35444;SDS011;21562;49.476;6.086;2023-09-08T11:16:41;8.32;;;4.72;;
35444;SDS011;21562;49.476;6.086;2023-09-08T11:19:08;8.65;;;4.93;;
35444;SDS011;21562;49.476;6.086;2023-09-08T11:21:35;8.23;;;4.72;;
35444;SDS011;21562;49.476;6.086;2023-09-08T11:24:01;6.90;;;4.80;;
35444;SDS011;21562;49.476;6.086;2023-09-08T11:26:29;6.82;;;4.05;;
35444;SDS011;21562;49.476;6.086;2023-09-08T11:28:58;10.10;;;4.38;;
35444;SDS011;21562;49.476;6.086;2023-09-08T11:31:24;13.15;;;5.35;;
35444;SDS011;21562;49.476;6.086;2023-09-08T11:33:49;9.57;;;5.22;;
35444;SDS011;21562;49.476;6.086;2023-09-08T11:36:20;11.52;;;5.25;;
35444;SDS011;21562;49.476;6.086;2023-09-08T11:38:45;9.95;;;5.18;;
35444;SDS011;21562;49.476;6.086;2023-09-08T11:41:11;6.47;;;4.72;;
35444;SDS011;21562;49.476;6.086;2023-09-08T11:43:37;8.95;;;5.20;;
35444;SDS011;21562;49.476;6.086;2023-09-08T11:46:03;14.38;;;5.85;;
35444;SDS011;21562;49.476;6.086;2023-09-08T11:48:28;12.98;;;4.95;;
35444;SDS011;21562;49.476;6.086;2023-09-08T11:50:54;7.57;;;5.50;;
35444;SDS011;21562;49.476;6.086;2023-09-08T11:53:22;8.25;;;5.35;;
35444;SDS011;21562;49.476;6.086;2023-09-08T11:55:49;5.95;;;4.70;;
35444;SDS011;21562;49.476;6.086;2023-09-08T11:58:15;9.02;;;5.40;;
35444;SDS011;21562;49.476;6.086;2023-09-08T12:00:42;6.60;;;4.55;;
35444;SDS011;21562;49.476;6.086;2023-09-08T12:03:13;12.30;;;5.15;;
35444;SDS011;21562;49.476;6.086;2023-09-08T12:05:40;10.90;;;5.18;;
35444;SDS011;21562;49.476;6.086;2023-09-08T12:08:07;7.57;;;5.15;;
35444;SDS011;21562;49.476;6.086;2023-09-08T12:10:39;8.77;;;5.05;;
35444;SDS011;21562;49.476;6.086;2023-09-08T12:13:06;11.32;;;5.40;;
35444;SDS011;21562;49.476;6.086;2023-09-08T12:15:35;11.13;;;4.82;;
35444;SDS011;21562;49.476;6.086;2023-09-08T12:18:11;9.77;;;4.95;;
35444;SDS011;21562;49.476;6.086;2023-09-08T12:20:40;5.88;;;4.43;;
35444;SDS011;21562;49.476;6.086;2023-09-08T12:23:14;6.70;;;4.55;;
35444;SDS011;21562;49.476;6.086;2023-09-08T12:25:51;7.03;;;4.18;;
35444;SDS011;21562;49.476;6.086;2023-09-08T12:28:18;9.25;;;4.30;;
35444;SDS011;21562;49.476;6.086;2023-09-08T12:30:44;5.97;;;4.28;;
35444;SDS011;21562;49.476;6.086;2023-09-08T12:33:10;11.57;;;5.35;;
35444;SDS011;21562;49.476;6.086;2023-09-08T12:35:38;11.77;;;4.03;;
35444;SDS011;21562;49.476;6.086;2023-09-08T12:38:04;7.63;;;4.15;;
35444;SDS011;21562;49.476;6.086;2023-09-08T12:40:33;17.58;;;3.88;;
35444;SDS011;21562;49.476;6.086;2023-09-08T12:43:00;7.53;;;4.25;;
35444;SDS011;21562;49.476;6.086;2023-09-08T12:45:26;8.73;;;3.42;;
35444;SDS011;21562;49.476;6.086;2023-09-08T12:47:52;9.57;;;3.90;;
35444;SDS011;21562;49.476;6.086;2023-09-08T12:50:20;6.70;;;3.80;;
35444;SDS011;21562;49.476;6.086;2023-09-08T12:52:45;10.15;;;3.72;;
35444;SDS011;21562;49.476;6.086;2023-09-08T12:55:11;7.85;;;3.72;;
35444;SDS011;21562;49.476;6.086;2023-09-08T12:57:37;6.18;;;3.60;;
35444;SDS011;21562;49.476;6.086;2023-09-08T13:00:03;6.40;;;3.33;;
35444;SDS011;21562;49.476;6.086;2023-09-08T13:02:30;12.15;;;3.47;;
35444;SDS011;21562;49.476;6.086;2023-09-08T13:04:55;10.27;;;4.10;;
35444;SDS011;21562;49.476;6.086;2023-09-08T13:07:22;8.68;;;3.15;;
35444;SDS011;21562;49.476;6.086;2023-09-08T13:09:48;5.47;;;3.22;;
35444;SDS011;21562;49.476;6.086;2023-09-08T13:12:15;9.02;;;3.20;;
35444;SDS011;21562;49.476;6.086;2023-09-08T13:14:41;8.35;;;3.40;;
35444;SDS011;21562;49.476;6.086;2023-09-08T13:17:08;8.65;;;3.75;;
35444;SDS011;21562;49.476;6.086;2023-09-08T13:19:35;7.78;;;3.58;;
35444;SDS011;21562;49.476;6.086;2023-09-08T13:22:02;14.90;;;4.32;;
35444;SDS011;21562;49.476;6.086;2023-09-08T13:24:29;6.97;;;3.60;;
35444;SDS011;21562;49.476;6.086;2023-09-08T13:26:54;8.63;;;3.78;;
35444;SDS011;21562;49.476;6.086;2023-09-08T13:29:20;7.72;;;3.95;;
35444;SDS011;21562;49.476;6.086;2023-09-08T13:31:45;9.88;;;4.20;;
35444;SDS011;21562;49.476;6.086;2023-09-08T13:34:11;9.63;;;3.55;;
35444;SDS011;21562;49.476;6.086;2023-09-08T13:36:36;13.80;;;4.10;;
35444;SDS011;21562;49.476;6.086;2023-09-08T13:39:02;16.50;;;3.72;;
35444;SDS011;21562;49.476;6.086;2023-09-08T13:41:45;8.45;;;3.60;;
35444;SDS011;21562;49.476;6.086;2023-09-08T13:44:21;10.32;;;4.47;;
35444;SDS011;21562;49.476;6.086;2023-09-08T13:46:51;13.65;;;4.20;;
35444;SDS011;21562;49.476;6.086;2023-09-08T13:49:18;6.35;;;3.50;;
35444;SDS011;21562;49.476;6.086;2023-09-08T13:51:44;12.18;;;4.00;;
35444;SDS011;21562;49.476;6.086;2023-09-08T13:54:11;13.82;;;3.65;;
35444;SDS011;21562;49.476;6.086;2023-09-08T13:56:38;14.18;;;3.83;;
35444;SDS011;21562;49.476;6.086;2023-09-08T13:59:04;9.63;;;4.03;;
35444;SDS011;21562;49.476;6.086;2023-09-08T14:01:32;10.20;;;4.03;;
35444;SDS011;21562;49.476;6.086;2023-09-08T14:03:58;6.18;;;3.88;;
35444;SDS011;21562;49.476;6.086;2023-09-08T14:06:25;12.35;;;4.45;;
35444;SDS011;21562;49.476;6.086;2023-09-08T14:08:51;8.43;;;3.90;;
35444;SDS011;21562;49.476;6.086;2023-09-08T14:11:17;9.52;;;3.80;;
35444;SDS011;21562;49.476;6.086;2023-09-08T14:13:43;20.20;;;4.15;;
35444;SDS011;21562;49.476;6.086;2023-09-08T14:16:09;9.43;;;3.63;;
35444;SDS011;21562;49.476;6.086;2023-09-08T14:18:36;9.80;;;4.07;;
35444;SDS011;21562;49.476;6.086;2023-09-08T14:21:01;7.80;;;3.72;;
35444;SDS011;21562;49.476;6.086;2023-09-08T14:23:29;9.93;;;3.90;;
35444;SDS011;21562;49.476;6.086;2023-09-08T14:25:55;6.82;;;3.83;;
35444;SDS011;21562;49.476;6.086;2023-09-08T14:28:20;7.95;;;3.70;;
35444;SDS011;21562;49.476;6.086;2023-09-08T14:30:46;11.88;;;4.20;;
35444;SDS011;21562;49.476;6.086;2023-09-08T14:33:14;8.65;;;3.90;;
35444;SDS011;21562;49.476;6.086;2023-09-08T14:35:42;10.65;;;4.78;;
35444;SDS011;21562;49.476;6.086;2023-09-08T14:38:08;12.07;;;4.30;;
35444;SDS011;21562;49.476;6.086;2023-09-08T14:40:34;6.72;;;3.53;;
35444;SDS011;21562;49.476;6.086;2023-09-08T14:43:00;7.68;;;3.60;;
35444;SDS011;21562;49.476;6.086;2023-09-08T14:45:26;7.32;;;3.75;;
35444;SDS011;21562;49.476;6.086;2023-09-08T14:47:52;5.80;;;3.58;;
35444;SDS011;21562;49.476;6.086;2023-09-08T14:50:18;6.20;;;3.65;;